sensor_id;sensor_type;location;lat;lon;timestamp;pressure;altitude;pressure_sealevel;temperature;humidity
76868;BME280;66168;45.478;11.060;2023-05-10T00:01:14;100441.67;;;17.26;61.24
76868;BME280;66168;45.478;11.060;2023-05-10T00:03:41;100439.52;;;17.26;61.25
76868;BME280;66168;45.478;11.060;2023-05-10T00:06:08;100439.83;;;17.25;61.40
76868;BME280;66168;45.478;11.060;2023-05-10T00:08:34;100434.04;;;17.26;61.28
76868;BME280;66168;45.478;11.060;2023-05-10T00:11:01;100430.58;;;17.25;61.10
76868;BME280;66168;45.478;11.060;2023-05-10T00:13:28;100435.71;;;17.23;60.84
76868;BME280;66168;45.478;11.060;2023-05-10T00:15:54;100432.69;;;17.20;60.58
76868;BME280;66168;45.478;11.060;2023-05-10T00:18:21;100433.21;;;17.17;60.14
76868;BME280;66168;45.478;11.060;2023-05-10T00:20:48;100425.35;;;17.11;60.03
76868;BME280;66168;45.478;11.060;2023-05-10T00:23:15;100429.38;;;17.09;59.91
76868;BME280;66168;45.478;11.060;2023-05-10T00:25:42;100426.55;;;17.06;59.89
76868;BME280;66168;45.478;11.060;2023-05-10T00:28:08;100422.88;;;17.03;59.55
76868;BME280;66168;45.478;11.060;2023-05-10T00:30:36;100425.27;;;17.00;59.41
76868;BME280;66168;45.478;11.060;2023-05-10T00:33:03;100423.08;;;16.99;59.22
76868;BME280;66168;45.478;11.060;2023-05-10T00:35:29;100421.95;;;16.96;59.13
76868;BME280;66168;45.478;11.060;2023-05-10T00:37:56;100420.66;;;16.98;58.88
76868;BME280;66168;45.478;11.060;2023-05-10T00:40:23;100419.57;;;16.92;58.12
76868;BME280;66168;45.478;11.060;2023-05-10T00:42:53;100420.05;;;16.84;58.21
76868;BME280;66168;45.478;11.060;2023-05-10T00:45:20;100417.90;;;16.81;57.81
76868;BME280;66168;45.478;11.060;2023-05-10T00:47:46;100412.27;;;16.76;57.85
76868;BME280;66168;45.478;11.060;2023-05-10T00:50:14;100409.83;;;16.73;57.62
76868;BME280;66168;45.478;11.060;2023-05-10T00:52:42;100407.00;;;16.71;57.65
76868;BME280;66168;45.478;11.060;2023-05-10T00:55:10;100405.14;;;16.66;57.30
76868;BME280;66168;45.478;11.060;2023-05-10T00:57:38;100400.53;;;16.65;57.52
76868;BME280;66168;45.478;11.060;2023-05-10T01:00:06;100395.08;;;16.64;57.37
76868;BME280;66168;45.478;11.060;2023-05-10T01:02:34;100391.22;;;16.63;57.04
76868;BME280;66168;45.478;11.060;2023-05-10T01:05:02;100384.86;;;16.60;57.20
76868;BME280;66168;45.478;11.060;2023-05-10T01:07:32;100382.05;;;16.58;57.14
76868;BME280;66168;45.478;11.060;2023-05-10T01:09:59;100379.39;;;16.54;57.08
76868;BME280;66168;45.478;11.060;2023-05-10T01:12:26;100376.05;;;16.52;57.11
76868;BME280;66168;45.478;11.060;2023-05-10T01:14:54;100374.06;;;16.47;57.09
76868;BME280;66168;45.478;11.060;2023-05-10T01:17:21;100380.16;;;16.44;57.33
76868;BME280;66168;45.478;11.060;2023-05-10T01:19:49;100378.16;;;16.41;57.50
76868;BME280;66168;45.478;11.060;2023-05-10T01:22:26;100373.80;;;16.39;57.42
76868;BME280;66168;45.478;11.060;2023-05-10T01:35:47;100358.70;;;16.19;57.74
76868;BME280;66168;45.478;11.060;2023-05-10T01:38:43;100361.00;;;16.15;57.74
76868;BME280;66168;45.478;11.060;2023-05-10T01:41:22;100357.05;;;16.09;58.02
76868;BME280;66168;45.478;11.060;2023-05-10T01:44:00;100356.01;;;16.04;58.24
76868;BME280;66168;45.478;11.060;2023-05-10T01:46:36;100354.88;;;16.01;58.38
76868;BME280;66168;45.478;11.060;2023-05-10T01:49:27;100353.77;;;15.96;58.89
76868;BME280;66168;45.478;11.060;2023-05-10T01:52:00;100353.71;;;15.96;59.11
76868;BME280;66168;45.478;11.060;2023-05-10T01:54:30;100347.45;;;15.97;59.04
76868;BME280;66168;45.478;11.060;2023-05-10T01:57:03;100342.48;;;15.95;59.44
76868;BME280;66168;45.478;11.060;2023-05-10T01:59:34;100348.91;;;15.95;59.44
76868;BME280;66168;45.478;11.060;2023-05-10T02:02:08;100347.33;;;15.92;59.68
76868;BME280;66168;45.478;11.060;2023-05-10T02:04:39;100343.91;;;15.90;59.71
76868;BME280;66168;45.478;11.060;2023-05-10T02:07:07;100342.73;;;15.87;59.86
76868;BME280;66168;45.478;11.060;2023-05-10T02:09:36;100344.42;;;15.82;59.91
76868;BME280;66168;45.478;11.060;2023-05-10T02:12:05;100348.02;;;15.80;60.20
76868;BME280;66168;45.478;11.060;2023-05-10T02:14:35;100352.37;;;15.77;60.17
76868;BME280;66168;45.478;11.060;2023-05-10T02:17:05;100353.04;;;15.71;60.21
76868;BME280;66168;45.478;11.060;2023-05-10T02:19:36;100358.02;;;15.65;60.20
76868;BME280;66168;45.478;11.060;2023-05-10T02:22:04;100362.32;;;15.56;60.70
76868;BME280;66168;45.478;11.060;2023-05-10T02:24:33;100366.52;;;15.50;61.07
76868;BME280;66168;45.478;11.060;2023-05-10T02:27:02;100370.23;;;15.48;61.43
76868;BME280;66168;45.478;11.060;2023-05-10T02:29:31;100372.77;;;15.48;62.15
76868;BME280;66168;45.478;11.060;2023-05-10T02:31:59;100373.48;;;15.49;62.16
76868;BME280;66168;45.478;11.060;2023-05-10T02:34:27;100369.11;;;15.46;62.65
76868;BME280;66168;45.478;11.060;2023-05-10T02:36:54;100371.78;;;15.38;62.52
76868;BME280;66168;45.478;11.060;2023-05-10T02:39:22;100371.64;;;15.34;62.88
76868;BME280;66168;45.478;11.060;2023-05-10T02:41:50;100373.40;;;15.27;63.37
76868;BME280;66168;45.478;11.060;2023-05-10T02:44:19;100372.86;;;15.28;63.94
76868;BME280;66168;45.478;11.060;2023-05-10T02:46:46;100368.52;;;15.30;64.15
76868;BME280;66168;45.478;11.060;2023-05-10T02:49:15;100369.80;;;15.32;64.62
76868;BME280;66168;45.478;11.060;2023-05-10T02:51:47;100368.14;;;15.32;64.85
76868;BME280;66168;45.478;11.060;2023-05-10T02:54:19;100364.67;;;15.33;64.48
76868;BME280;66168;45.478;11.060;2023-05-10T02:56:51;100360.88;;;15.33;64.30
76868;BME280;66168;45.478;11.060;2023-05-10T02:59:19;100362.11;;;15.35;64.31
76868;BME280;66168;45.478;11.060;2023-05-10T03:01:46;100362.58;;;15.31;64.67
76868;BME280;66168;45.478;11.060;2023-05-10T03:04:12;100360.79;;;15.17;65.15
76868;BME280;66168;45.478;11.060;2023-05-10T03:06:40;100362.35;;;15.06;65.42
76868;BME280;66168;45.478;11.060;2023-05-10T03:09:07;100361.64;;;15.01;66.34
76868;BME280;66168;45.478;11.060;2023-05-10T03:14:38;100366.54;;;14.99;67.10
76868;BME280;66168;45.478;11.060;2023-05-10T03:17:14;100367.68;;;15.04;66.86
76868;BME280;66168;45.478;11.060;2023-05-10T03:19:48;100367.48;;;14.99;67.26
76868;BME280;66168;45.478;11.060;2023-05-10T03:22:28;100363.50;;;14.97;67.39
76868;BME280;66168;45.478;11.060;2023-05-10T03:24:57;100360.17;;;14.93;67.34
76868;BME280;66168;45.478;11.060;2023-05-10T03:27:27;100358.31;;;14.93;67.65
76868;BME280;66168;45.478;11.060;2023-05-10T03:29:55;100356.38;;;14.94;68.43
76868;BME280;66168;45.478;11.060;2023-05-10T03:32:23;100355.98;;;14.88;68.36
76868;BME280;66168;45.478;11.060;2023-05-10T03:34:50;100356.73;;;14.85;68.36
76868;BME280;66168;45.478;11.060;2023-05-10T03:37:16;100359.67;;;14.82;68.64
76868;BME280;66168;45.478;11.060;2023-05-10T03:39:43;100358.73;;;14.75;69.01
76868;BME280;66168;45.478;11.060;2023-05-10T03:42:10;100354.55;;;14.69;69.52
76868;BME280;66168;45.478;11.060;2023-05-10T03:44:39;100360.81;;;14.66;69.62
76868;BME280;66168;45.478;11.060;2023-05-10T03:47:06;100357.98;;;14.61;69.96
76868;BME280;66168;45.478;11.060;2023-05-10T03:49:33;100356.92;;;14.56;69.80
76868;BME280;66168;45.478;11.060;2023-05-10T03:52:00;100351.77;;;14.61;69.30
76868;BME280;66168;45.478;11.060;2023-05-10T03:54:27;100347.56;;;14.63;68.92
76868;BME280;66168;45.478;11.060;2023-05-10T03:56:54;100342.17;;;14.60;68.77
76868;BME280;66168;45.478;11.060;2023-05-10T03:59:20;100338.06;;;14.56;68.68
76868;BME280;66168;45.478;11.060;2023-05-10T04:01:47;100338.90;;;14.56;68.81
76868;BME280;66168;45.478;11.060;2023-05-10T04:04:14;100342.44;;;14.55;68.81
76868;BME280;66168;45.478;11.060;2023-05-10T04:06:41;100338.98;;;14.54;68.50
76868;BME280;66168;45.478;11.060;2023-05-10T04:09:07;100344.37;;;14.57;68.58
76868;BME280;66168;45.478;11.060;2023-05-10T04:11:34;100343.98;;;14.57;68.21
76868;BME280;66168;45.478;11.060;2023-05-10T04:14:01;100348.23;;;14.56;67.90
76868;BME280;66168;45.478;11.060;2023-05-10T04:16:28;100350.38;;;14.55;67.99
76868;BME280;66168;45.478;11.060;2023-05-10T04:18:55;100351.23;;;14.57;68.32
76868;BME280;66168;45.478;11.060;2023-05-10T04:21:21;100356.66;;;14.62;68.35
76868;BME280;66168;45.478;11.060;2023-05-10T04:23:48;100353.48;;;14.64;68.54
76868;BME280;66168;45.478;11.060;2023-05-10T04:26:15;100355.27;;;14.66;68.74
76868;BME280;66168;45.478;11.060;2023-05-10T04:28:42;100349.45;;;14.65;68.68
76868;BME280;66168;45.478;11.060;2023-05-10T04:31:09;100343.61;;;14.58;68.56
76868;BME280;66168;45.478;11.060;2023-05-10T04:33:36;100343.39;;;14.54;68.49
76868;BME280;66168;45.478;11.060;2023-05-10T04:36:03;100338.95;;;14.48;68.10
76868;BME280;66168;45.478;11.060;2023-05-10T04:38:30;100340.61;;;14.44;68.38
76868;BME280;66168;45.478;11.060;2023-05-10T04:41:07;100338.70;;;14.44;68.08
76868;BME280;66168;45.478;11.060;2023-05-10T04:43:34;100340.98;;;14.41;68.40
76868;BME280;66168;45.478;11.060;2023-05-10T04:46:00;100340.15;;;14.40;68.51
76868;BME280;66168;45.478;11.060;2023-05-10T04:48:27;100340.58;;;14.37;68.61
76868;BME280;66168;45.478;11.060;2023-05-10T04:50:54;100348.16;;;14.32;68.26
76868;BME280;66168;45.478;11.060;2023-05-10T04:53:21;100347.83;;;14.25;68.33
76868;BME280;66168;45.478;11.060;2023-05-10T04:55:48;100347.77;;;14.22;68.14
76868;BME280;66168;45.478;11.060;2023-05-10T04:58:15;100349.69;;;14.20;68.12
76868;BME280;66168;45.478;11.060;2023-05-10T05:00:42;100352.85;;;14.21;68.38
76868;BME280;66168;45.478;11.060;2023-05-10T05:03:09;100352.89;;;14.18;68.53
76868;BME280;66168;45.478;11.060;2023-05-10T05:05:36;100350.70;;;14.15;68.37
76868;BME280;66168;45.478;11.060;2023-05-10T05:08:03;100350.13;;;14.16;68.48
76868;BME280;66168;45.478;11.060;2023-05-10T05:10:29;100352.19;;;14.15;68.59
76868;BME280;66168;45.478;11.060;2023-05-10T05:12:56;100349.80;;;14.15;68.77
76868;BME280;66168;45.478;11.060;2023-05-10T05:15:23;100354.13;;;14.16;69.14
76868;BME280;66168;45.478;11.060;2023-05-10T05:17:50;100353.05;;;14.15;69.24
76868;BME280;66168;45.478;11.060;2023-05-10T05:20:16;100355.27;;;14.16;69.44
76868;BME280;66168;45.478;11.060;2023-05-10T05:22:45;100357.30;;;14.14;69.20
76868;BME280;66168;45.478;11.060;2023-05-10T05:25:12;100358.08;;;14.11;69.28
76868;BME280;66168;45.478;11.060;2023-05-10T05:27:39;100355.61;;;14.11;69.26
76868;BME280;66168;45.478;11.060;2023-05-10T05:30:06;100357.58;;;14.11;69.30
76868;BME280;66168;45.478;11.060;2023-05-10T05:32:33;100359.30;;;14.14;68.98
76868;BME280;66168;45.478;11.060;2023-05-10T05:35:00;100365.15;;;14.14;69.13
76868;BME280;66168;45.478;11.060;2023-05-10T05:37:27;100364.13;;;14.19;69.42
76868;BME280;66168;45.478;11.060;2023-05-10T05:39:54;100370.73;;;14.23;69.46
76868;BME280;66168;45.478;11.060;2023-05-10T05:42:21;100368.15;;;14.22;69.51
76868;BME280;66168;45.478;11.060;2023-05-10T05:44:48;100368.45;;;14.15;69.75
76868;BME280;66168;45.478;11.060;2023-05-10T05:47:14;100369.47;;;14.14;69.78
76868;BME280;66168;45.478;11.060;2023-05-10T05:49:41;100370.83;;;14.17;70.07
76868;BME280;66168;45.478;11.060;2023-05-10T05:52:08;100371.70;;;14.22;70.42
76868;BME280;66168;45.478;11.060;2023-05-10T05:54:35;100373.75;;;14.30;70.50
76868;BME280;66168;45.478;11.060;2023-05-10T05:57:01;100373.21;;;14.32;70.97
76868;BME280;66168;45.478;11.060;2023-05-10T05:59:28;100378.14;;;14.36;71.50
76868;BME280;66168;45.478;11.060;2023-05-10T06:01:55;100377.60;;;14.40;71.61
76868;BME280;66168;45.478;11.060;2023-05-10T06:04:22;100374.55;;;14.42;71.47
76868;BME280;66168;45.478;11.060;2023-05-10T06:06:49;100374.23;;;14.42;71.40
76868;BME280;66168;45.478;11.060;2023-05-10T06:09:15;100372.70;;;14.45;71.00
76868;BME280;66168;45.478;11.060;2023-05-10T06:11:42;100374.47;;;14.42;70.95
76868;BME280;66168;45.478;11.060;2023-05-10T06:14:09;100370.92;;;14.32;70.78
76868;BME280;66168;45.478;11.060;2023-05-10T06:16:36;100374.66;;;14.15;70.81
76868;BME280;66168;45.478;11.060;2023-05-10T06:19:03;100372.11;;;14.00;70.84
76868;BME280;66168;45.478;11.060;2023-05-10T06:21:30;100372.99;;;13.88;71.00
76868;BME280;66168;45.478;11.060;2023-05-10T06:23:57;100379.39;;;13.84;70.92
76868;BME280;66168;45.478;11.060;2023-05-10T06:26:24;100381.61;;;13.82;71.21
76868;BME280;66168;45.478;11.060;2023-05-10T06:28:51;100385.84;;;13.74;71.08
76868;BME280;66168;45.478;11.060;2023-05-10T06:31:18;100382.09;;;13.74;71.14
76868;BME280;66168;45.478;11.060;2023-05-10T06:33:45;100381.27;;;13.72;71.22
76868;BME280;66168;45.478;11.060;2023-05-10T06:36:11;100384.65;;;13.62;71.29
76868;BME280;66168;45.478;11.060;2023-05-10T06:38:39;100386.27;;;13.55;70.94
76868;BME280;66168;45.478;11.060;2023-05-10T06:41:06;100385.48;;;13.48;70.94
76868;BME280;66168;45.478;11.060;2023-05-10T06:43:33;100384.60;;;13.45;71.26
76868;BME280;66168;45.478;11.060;2023-05-10T06:46:01;100381.52;;;13.42;71.73
76868;BME280;66168;45.478;11.060;2023-05-10T06:48:28;100383.48;;;13.42;71.70
76868;BME280;66168;45.478;11.060;2023-05-10T06:50:55;100382.24;;;13.43;71.67
76868;BME280;66168;45.478;11.060;2023-05-10T06:53:22;100383.08;;;13.44;72.08
76868;BME280;66168;45.478;11.060;2023-05-10T06:55:49;100380.78;;;13.46;72.01
76868;BME280;66168;45.478;11.060;2023-05-10T06:58:16;100379.11;;;13.46;71.84
76868;BME280;66168;45.478;11.060;2023-05-10T07:00:43;100375.69;;;13.49;71.69
76868;BME280;66168;45.478;11.060;2023-05-10T07:03:10;100372.78;;;13.51;71.83
76868;BME280;66168;45.478;11.060;2023-05-10T07:05:37;100375.80;;;13.51;71.79
76868;BME280;66168;45.478;11.060;2023-05-10T07:08:04;100374.27;;;13.52;72.27
76868;BME280;66168;45.478;11.060;2023-05-10T07:10:30;100378.47;;;13.51;72.71
76868;BME280;66168;45.478;11.060;2023-05-10T07:12:57;100376.82;;;13.54;72.80
76868;BME280;66168;45.478;11.060;2023-05-10T07:15:24;100377.23;;;13.53;72.66
76868;BME280;66168;45.478;11.060;2023-05-10T07:17:51;100379.69;;;13.50;72.92
76868;BME280;66168;45.478;11.060;2023-05-10T07:20:19;100384.58;;;13.49;72.99
76868;BME280;66168;45.478;11.060;2023-05-10T07:22:45;100391.23;;;13.50;73.68
76868;BME280;66168;45.478;11.060;2023-05-10T07:25:12;100391.70;;;13.46;74.07
76868;BME280;66168;45.478;11.060;2023-05-10T07:27:39;100392.55;;;13.49;74.83
76868;BME280;66168;45.478;11.060;2023-05-10T07:30:06;100389.86;;;13.59;74.72
76868;BME280;66168;45.478;11.060;2023-05-10T07:32:33;100390.05;;;13.68;74.59
76868;BME280;66168;45.478;11.060;2023-05-10T07:35:00;100391.05;;;13.73;74.67
76868;BME280;66168;45.478;11.060;2023-05-10T07:37:26;100393.90;;;13.78;74.35
76868;BME280;66168;45.478;11.060;2023-05-10T07:39:53;100396.16;;;13.73;74.57
76868;BME280;66168;45.478;11.060;2023-05-10T07:42:20;100395.57;;;13.69;74.97
76868;BME280;66168;45.478;11.060;2023-05-10T07:44:46;100400.29;;;13.68;75.40
76868;BME280;66168;45.478;11.060;2023-05-10T07:47:13;100402.77;;;13.74;75.13
76868;BME280;66168;45.478;11.060;2023-05-10T07:49:40;100405.05;;;13.76;75.34
76868;BME280;66168;45.478;11.060;2023-05-10T07:52:07;100409.02;;;13.69;75.47
76868;BME280;66168;45.478;11.060;2023-05-10T07:54:33;100413.54;;;13.67;75.54
76868;BME280;66168;45.478;11.060;2023-05-10T07:57:00;100414.52;;;13.70;75.70
76868;BME280;66168;45.478;11.060;2023-05-10T07:59:27;100414.54;;;13.73;75.51
76868;BME280;66168;45.478;11.060;2023-05-10T08:01:53;100422.41;;;13.72;75.76
76868;BME280;66168;45.478;11.060;2023-05-10T08:04:20;100422.18;;;13.73;76.06
76868;BME280;66168;45.478;11.060;2023-05-10T08:06:47;100425.23;;;13.77;76.38
76868;BME280;66168;45.478;11.060;2023-05-10T08:09:14;100430.97;;;13.86;76.06
76868;BME280;66168;45.478;11.060;2023-05-10T08:11:40;100430.08;;;13.90;75.93
76868;BME280;66168;45.478;11.060;2023-05-10T08:14:07;100434.15;;;13.92;76.16
76868;BME280;66168;45.478;11.060;2023-05-10T08:16:34;100436.96;;;13.99;76.09
76868;BME280;66168;45.478;11.060;2023-05-10T08:19:01;100435.41;;;14.06;75.89
76868;BME280;66168;45.478;11.060;2023-05-10T08:21:28;100435.46;;;14.15;75.98
76868;BME280;66168;45.478;11.060;2023-05-10T08:23:54;100436.20;;;14.24;76.16
76868;BME280;66168;45.478;11.060;2023-05-10T08:26:21;100442.41;;;14.34;76.13
76868;BME280;66168;45.478;11.060;2023-05-10T08:28:48;100438.40;;;14.43;75.87
76868;BME280;66168;45.478;11.060;2023-05-10T08:31:14;100440.38;;;14.50;75.84
76868;BME280;66168;45.478;11.060;2023-05-10T08:33:42;100442.42;;;14.60;75.69
76868;BME280;66168;45.478;11.060;2023-05-10T08:36:10;100447.05;;;14.64;75.39
76868;BME280;66168;45.478;11.060;2023-05-10T08:38:37;100447.04;;;14.55;75.34
76868;BME280;66168;45.478;11.060;2023-05-10T08:41:05;100448.69;;;14.44;75.53
76868;BME280;66168;45.478;11.060;2023-05-10T08:43:32;100452.89;;;14.46;75.57
76868;BME280;66168;45.478;11.060;2023-05-10T08:46:02;100446.95;;;14.46;75.04
76868;BME280;66168;45.478;11.060;2023-05-10T08:48:33;100449.06;;;14.46;74.81
76868;BME280;66168;45.478;11.060;2023-05-10T08:51:02;100452.11;;;14.48;74.69
76868;BME280;66168;45.478;11.060;2023-05-10T08:53:31;100445.93;;;14.54;74.58
76868;BME280;66168;45.478;11.060;2023-05-10T08:56:02;100447.79;;;14.60;74.33
76868;BME280;66168;45.478;11.060;2023-05-10T08:58:28;100445.44;;;14.65;74.39
76868;BME280;66168;45.478;11.060;2023-05-10T09:00:56;100447.29;;;14.66;74.67
76868;BME280;66168;45.478;11.060;2023-05-10T09:03:23;100449.72;;;14.63;74.43
76868;BME280;66168;45.478;11.060;2023-05-10T09:05:50;100452.16;;;14.57;74.59
76868;BME280;66168;45.478;11.060;2023-05-10T09:08:17;100452.55;;;14.61;74.67
76868;BME280;66168;45.478;11.060;2023-05-10T09:10:44;100455.16;;;14.63;74.70
76868;BME280;66168;45.478;11.060;2023-05-10T09:13:14;100458.13;;;14.64;74.79
76868;BME280;66168;45.478;11.060;2023-05-10T09:15:44;100453.74;;;14.70;74.65
76868;BME280;66168;45.478;11.060;2023-05-10T09:18:12;100455.64;;;14.75;74.98
76868;BME280;66168;45.478;11.060;2023-05-10T09:20:39;100452.67;;;14.82;74.80
76868;BME280;66168;45.478;11.060;2023-05-10T09:23:06;100446.90;;;14.84;74.79
76868;BME280;66168;45.478;11.060;2023-05-10T09:25:33;100450.13;;;14.78;74.75
76868;BME280;66168;45.478;11.060;2023-05-10T09:28:00;100444.48;;;14.75;74.78
76868;BME280;66168;45.478;11.060;2023-05-10T09:30:30;100441.93;;;14.74;74.23
76868;BME280;66168;45.478;11.060;2023-05-10T09:32:58;100441.98;;;14.64;74.04
76868;BME280;66168;45.478;11.060;2023-05-10T09:35:31;100437.52;;;14.60;73.77
76868;BME280;66168;45.478;11.060;2023-05-10T09:37:59;100433.45;;;14.58;73.96
76868;BME280;66168;45.478;11.060;2023-05-10T09:40:28;100435.84;;;14.54;73.53
76868;BME280;66168;45.478;11.060;2023-05-10T09:45:33;100433.13;;;14.57;73.57
76868;BME280;66168;45.478;11.060;2023-05-10T09:48:04;100431.23;;;14.58;73.68
76868;BME280;66168;45.478;11.060;2023-05-10T09:50:31;100425.55;;;14.54;74.33
76868;BME280;66168;45.478;11.060;2023-05-10T09:53:00;100428.98;;;14.50;74.32
76868;BME280;66168;45.478;11.060;2023-05-10T09:55:41;100430.04;;;14.51;74.80
76868;BME280;66168;45.478;11.060;2023-05-10T09:58:12;100431.15;;;14.52;74.47
76868;BME280;66168;45.478;11.060;2023-05-10T10:00:44;100427.23;;;14.55;74.32
76868;BME280;66168;45.478;11.060;2023-05-10T10:03:16;100425.14;;;14.60;74.11
76868;BME280;66168;45.478;11.060;2023-05-10T10:05:44;100427.12;;;14.61;74.60
76868;BME280;66168;45.478;11.060;2023-05-10T10:08:12;100423.90;;;14.62;74.52
76868;BME280;66168;45.478;11.060;2023-05-10T10:10:40;100421.46;;;14.63;73.86
76868;BME280;66168;45.478;11.060;2023-05-10T10:13:07;100421.67;;;14.71;74.05
76868;BME280;66168;45.478;11.060;2023-05-10T10:15:34;100420.78;;;14.77;74.19
76868;BME280;66168;45.478;11.060;2023-05-10T10:18:02;100422.80;;;14.81;74.53
76868;BME280;66168;45.478;11.060;2023-05-10T10:20:31;100419.67;;;14.88;74.81
76868;BME280;66168;45.478;11.060;2023-05-10T10:22:57;100419.98;;;14.94;75.19
76868;BME280;66168;45.478;11.060;2023-05-10T10:25:24;100427.41;;;14.93;75.45
76868;BME280;66168;45.478;11.060;2023-05-10T10:35:43;100418.18;;;14.89;74.99
76868;BME280;66168;45.478;11.060;2023-05-10T10:38:15;100419.67;;;14.87;75.50
76868;BME280;66168;45.478;11.060;2023-05-10T10:40:42;100420.37;;;14.84;75.72
76868;BME280;66168;45.478;11.060;2023-05-10T10:43:26;100421.34;;;14.80;75.96
76868;BME280;66168;45.478;11.060;2023-05-10T10:48:48;100418.70;;;14.73;75.75
76868;BME280;66168;45.478;11.060;2023-05-10T10:51:15;100417.42;;;14.74;75.86
76868;BME280;66168;45.478;11.060;2023-05-10T10:53:42;100413.48;;;14.69;76.11
76868;BME280;66168;45.478;11.060;2023-05-10T10:56:11;100412.66;;;14.60;76.24
76868;BME280;66168;45.478;11.060;2023-05-10T10:58:40;100410.28;;;14.55;75.98
76868;BME280;66168;45.478;11.060;2023-05-10T11:01:16;100407.88;;;14.58;76.05
76868;BME280;66168;45.478;11.060;2023-05-10T11:06:32;100412.68;;;14.70;74.62
76868;BME280;66168;45.478;11.060;2023-05-10T11:09:11;100410.02;;;14.70;74.55
76868;BME280;66168;45.478;11.060;2023-05-10T11:11:52;100399.83;;;14.78;75.10
76868;BME280;66168;45.478;11.060;2023-05-10T11:14:22;100397.36;;;14.82;74.92
76868;BME280;66168;45.478;11.060;2023-05-10T11:16:49;100398.97;;;14.79;75.46
76868;BME280;66168;45.478;11.060;2023-05-10T11:19:17;100397.64;;;14.86;75.57
76868;BME280;66168;45.478;11.060;2023-05-10T11:21:49;100396.17;;;14.93;75.32
76868;BME280;66168;45.478;11.060;2023-05-10T11:24:25;100394.60;;;14.95;75.39
76868;BME280;66168;45.478;11.060;2023-05-10T11:26:53;100395.27;;;14.92;75.77
76868;BME280;66168;45.478;11.060;2023-05-10T11:29:20;100394.38;;;14.91;75.16
76868;BME280;66168;45.478;11.060;2023-05-10T11:31:48;100396.69;;;14.92;74.84
76868;BME280;66168;45.478;11.060;2023-05-10T11:34:33;100394.14;;;14.97;74.83
76868;BME280;66168;45.478;11.060;2023-05-10T11:37:00;100393.89;;;14.99;74.75
76868;BME280;66168;45.478;11.060;2023-05-10T11:39:28;100396.02;;;15.04;74.95
76868;BME280;66168;45.478;11.060;2023-05-10T11:41:57;100396.61;;;15.11;74.61
76868;BME280;66168;45.478;11.060;2023-05-10T11:44:31;100394.08;;;15.18;74.64
76868;BME280;66168;45.478;11.060;2023-05-10T11:46:59;100395.92;;;15.21;74.86
76868;BME280;66168;45.478;11.060;2023-05-10T11:49:27;100399.67;;;15.21;75.22
76868;BME280;66168;45.478;11.060;2023-05-10T11:52:04;100401.35;;;15.25;75.13
76868;BME280;66168;45.478;11.060;2023-05-10T11:54:31;100406.13;;;15.28;75.13
76868;BME280;66168;45.478;11.060;2023-05-10T11:56:58;100404.42;;;15.31;75.08
76868;BME280;66168;45.478;11.060;2023-05-10T11:59:24;100408.95;;;15.32;74.83
76868;BME280;66168;45.478;11.060;2023-05-10T12:01:51;100406.30;;;15.34;74.71
76868;BME280;66168;45.478;11.060;2023-05-10T12:04:18;100411.00;;;15.35;74.43
76868;BME280;66168;45.478;11.060;2023-05-10T12:06:46;100408.83;;;15.33;73.96
76868;BME280;66168;45.478;11.060;2023-05-10T12:09:14;100404.55;;;15.26;73.78
76868;BME280;66168;45.478;11.060;2023-05-10T12:11:43;100413.76;;;15.25;74.01
76868;BME280;66168;45.478;11.060;2023-05-10T12:14:10;100413.56;;;15.23;74.07
76868;BME280;66168;45.478;11.060;2023-05-10T12:16:37;100414.44;;;15.21;73.99
76868;BME280;66168;45.478;11.060;2023-05-10T12:19:04;100416.08;;;15.23;74.17
76868;BME280;66168;45.478;11.060;2023-05-10T12:21:32;100412.13;;;15.28;74.39
76868;BME280;66168;45.478;11.060;2023-05-10T12:24:02;100415.16;;;15.32;74.26
76868;BME280;66168;45.478;11.060;2023-05-10T12:26:29;100413.55;;;15.36;74.08
76868;BME280;66168;45.478;11.060;2023-05-10T12:29:17;100416.37;;;15.41;74.08
76868;BME280;66168;45.478;11.060;2023-05-10T12:31:58;100417.92;;;15.44;74.42
76868;BME280;66168;45.478;11.060;2023-05-10T12:34:33;100418.85;;;15.40;74.09
76868;BME280;66168;45.478;11.060;2023-05-10T12:37:04;100420.39;;;15.37;74.54
76868;BME280;66168;45.478;11.060;2023-05-10T12:39:41;100421.83;;;15.38;74.79
76868;BME280;66168;45.478;11.060;2023-05-10T12:42:08;100418.25;;;15.35;75.14
76868;BME280;66168;45.478;11.060;2023-05-10T12:44:34;100424.97;;;15.35;75.34
76868;BME280;66168;45.478;11.060;2023-05-10T12:47:01;100425.86;;;15.31;75.67
76868;BME280;66168;45.478;11.060;2023-05-10T12:49:28;100426.65;;;15.28;75.62
76868;BME280;66168;45.478;11.060;2023-05-10T12:51:54;100431.96;;;15.28;75.92
76868;BME280;66168;45.478;11.060;2023-05-10T12:54:21;100429.58;;;15.30;76.19
76868;BME280;66168;45.478;11.060;2023-05-10T12:56:47;100430.20;;;15.37;76.44
76868;BME280;66168;45.478;11.060;2023-05-10T12:59:14;100432.38;;;15.38;76.30
76868;BME280;66168;45.478;11.060;2023-05-10T13:01:40;100427.66;;;15.35;76.20
76868;BME280;66168;45.478;11.060;2023-05-10T13:04:07;100421.66;;;15.39;75.93
76868;BME280;66168;45.478;11.060;2023-05-10T13:06:34;100425.94;;;15.39;75.92
76868;BME280;66168;45.478;11.060;2023-05-10T13:09:01;100424.52;;;15.44;75.95
76868;BME280;66168;45.478;11.060;2023-05-10T13:11:28;100424.73;;;15.44;75.79
76868;BME280;66168;45.478;11.060;2023-05-10T13:13:55;100420.65;;;15.44;76.07
76868;BME280;66168;45.478;11.060;2023-05-10T13:16:21;100417.31;;;15.47;76.17